Time;durP1;ratioP1;P1;durP2;ratioP2;P2;SDS_P1;SDS_P2;PMS_P1;PMS_P2;Temp;Humidity;BMP_temperature;BMP_pressure;BME280_temperature;BME280_humidity;BME280_pressure;Samples;Min_cycle;Max_cycle;Signal;HPM_P1;HPM_P2
2023/08/18 00:00:48;;;;;;;;;;;;;;;;;;4969206;28;19945;-91
2023/08/18 00:03:14;;;;;;;;;;;;;;;;;;4954515;28;19989;-90
2023/08/18 00:05:40;;;;;;;;;;;;;;;;;;4951145;28;19906;-94
2023/08/18 00:08:09;;;;;;;;;;;;;;;;;;4967352;28;19989;-93
2023/08/18 00:10:35;;;;;;;;;;;;;;;;;;4951853;28;20080;-93
2023/08/18 00:13:01;;;;;;;;;;;;;;;;;;4953541;28;19924;-93
2023/08/18 00:15:27;;;;;;;;;;;;;;;;;;4973249;28;19936;-93
2023/08/18 00:17:53;;;;;;;;;;;;;;;;;;4951870;28;20372;-93
2023/08/18 00:20:18;;;;;;;;;;;;;;;;;;4956012;28;19918;-93
2023/08/18 00:22:44;;;;;;;;;;;;;;;;;;4949589;28;20021;-93
2023/08/18 00:25:11;;;;;;;;;;;;;;;;;;4966454;28;19977;-93
2023/08/18 00:27:37;;;;;;;;;;;;;;;;;;4957025;28;19945;-93
2023/08/18 00:30:05;;;;;;;;;;;;;;;;;;4954050;28;19918;-93
2023/08/18 00:32:31;;;;;;;;;;;;;;;;;;4952052;28;19910;-92
2023/08/18 00:34:57;;;;;;;;;;;;;;;;;;4952638;28;19952;-93
2023/08/18 00:37:23;;;;;;;;;;;;;;;;;;4947734;28;20393;-93
2023/08/18 00:39:49;;;;;;;;;;;;;;;;;;4953724;28;20222;-93
2023/08/18 00:42:15;;;;;;;;;;;;;;;;;;4967729;28;19941;-93
2023/08/18 00:44:41;;;;;;;;;;;;;;;;;;4953795;28;20499;-92
2023/08/18 00:47:07;;;;;;;;;;;;;;;;;;4952211;28;20034;-93
2023/08/18 00:49:36;;;;;;;;;;;;;;;;;;4955338;28;19962;-93
2023/08/18 00:52:02;;;;;;;;;;;;;;;;;;4953274;28;19945;-93
2023/08/18 00:54:29;;;;;;;;;;;;;;;;;;4956698;28;19910;-93
2023/08/18 00:56:55;;;;;;;;;;;;;;;;;;4954265;28;19917;-93
2023/08/18 00:59:27;;;;;;;;;;;;;;;;;;4964348;28;19910;-92
2023/08/18 01:01:53;;;;;;;;;;;;;;;;;;4955059;28;20290;-93
2023/08/18 01:04:19;;;;;;;;;;;;;;;;;;4950826;28;19925;-93
2023/08/18 01:06:45;;;;;;;;;;;;;;;;;;4950429;28;19945;-93
2023/08/18 01:09:11;;;;;;;;;;;;;;;;;;4945822;28;19914;-92
2023/08/18 01:11:37;;;;;;;;;;;;;;;;;;4967662;28;19922;-93
2023/08/18 01:14:03;;;;;;;;;;;;;;;;;;4932150;29;19910;-92
2023/08/18 01:16:29;;;;;;;;;;;;;;;;;;4942676;28;19921;-90
2023/08/18 01:18:56;;;;;;;;;;;;;;;;;;4970510;28;20451;-91
2023/08/18 01:21:22;;;;;;;;;;;;;;;;;;4953660;28;19918;-91
2023/08/18 01:23:48;;;;;;;;;;;;;;;;;;4968562;28;19921;-91
2023/08/18 01:26:14;;;;;;;;;;;;;;;;;;4954037;28;19965;-92
2023/08/18 01:28:40;;;;;;;;;;;;;;;;;;4955724;28;19913;-91
2023/08/18 01:31:06;;;;;;;;;;;;;;;;;;4954641;28;19925;-91
2023/08/18 01:33:32;;;;;;;;;;;;;;;;;;4967461;28;19910;-92
2023/08/18 01:36:04;;;;;;;;;;;;;;;;;;4954801;28;20294;-91
2023/08/18 01:38:31;;;;;;;;;;;;;;;;;;4969825;28;19953;-92
2023/08/18 01:40:57;;;;;;;;;;;;;;;;;;4971119;28;19910;-92
2023/08/18 01:43:24;;;;;;;;;;;;;;;;;;4963745;28;19922;-92
2023/08/18 01:45:49;;;;;;;;;;;;;;;;;;4969030;28;19910;-91
2023/08/18 01:48:19;;;;;;;;;;;;;;;;;;4953961;28;19914;-92
2023/08/18 01:50:45;;;;;;;;;;;;;;;;;;4960989;28;19918;-92
2023/08/18 01:53:11;;;;;;;;;;;;;;;;;;4964295;28;19917;-91
2023/08/18 01:55:37;;;;;;;;;;;;;;;;;;4972016;28;19910;-92
2023/08/18 01:58:03;;;;;;;;;;;;;;;;;;4959496;28;19917;-91
2023/08/18 02:00:29;;;;;;;;;;;;;;;;;;4958912;28;19914;-92
2023/08/18 02:02:55;;;;;;;;;;;;;;;;;;4960013;28;20004;-92
2023/08/18 02:05:21;;;;;;;;;;;;;;;;;;4953530;28;19918;-91
2023/08/18 02:07:47;;;;;;;;;;;;;;;;;;4973546;28;19921;-92
2023/08/18 02:10:19;;;;;;;;;;;;;;;;;;4959177;28;20579;-92
2023/08/18 02:12:45;;;;;;;;;;;;;;;;;;4957661;28;19957;-92
2023/08/18 02:15:11;;;;;;;;;;;;;;;;;;4958657;28;20062;-92
2023/08/18 02:17:37;;;;;;;;;;;;;;;;;;4973902;28;19910;-91
2023/08/18 02:20:03;;;;;;;;;;;;;;;;;;4958677;28;19948;-92
2023/08/18 02:22:29;;;;;;;;;;;;;;;;;;4971943;28;19918;-92
2023/08/18 02:24:55;;;;;;;;;;;;;;;;;;4954657;28;19918;-90
2023/08/18 02:27:21;;;;;;;;;;;;;;;;;;4953686;28;20334;-93
2023/08/18 02:29:47;;;;;;;;;;;;;;;;;;4956374;28;20013;-93
2023/08/18 02:32:18;;;;;;;;;;;;;;;;;;4955094;28;19914;-93
2023/08/18 02:34:44;;;;;;;;;;;;;;;;;;4954671;28;20274;-93
2023/08/18 02:37:10;;;;;;;;;;;;;;;;;;4957457;28;20382;-93
2023/08/18 02:39:36;;;;;;;;;;;;;;;;;;4956412;28;19918;-93
2023/08/18 02:42:02;;;;;;;;;;;;;;;;;;4969589;28;19934;-94
2023/08/18 02:44:28;;;;;;;;;;;;;;;;;;4968132;28;19910;-92
2023/08/18 02:46:53;;;;;;;;;;;;;;;;;;4958235;28;19910;-92
2023/08/18 02:49:20;;;;;;;;;;;;;;;;;;4958802;28;19918;-92
2023/08/18 02:51:47;;;;;;;;;;;;;;;;;;4960594;28;19914;-92
2023/08/18 02:54:12;;;;;;;;;;;;;;;;;;4959006;28;19910;-94
2023/08/18 02:56:38;;;;;;;;;;;;;;;;;;4969999;28;19914;-92
2023/08/18 02:59:04;;;;;;;;;;;;;;;;;;4968558;28;19921;-92
2023/08/18 03:01:30;;;;;;;;;;;;;;;;;;4958324;28;19921;-93
2023/08/18 03:03:56;;;;;;;;;;;;;;;;;;4963595;28;19918;-93
2023/08/18 03:06:22;;;;;;;;;;;;;;;;;;4959890;28;19914;-94
2023/08/18 03:08:48;;;;;;;;;;;;;;;;;;4974378;28;19918;-94
2023/08/18 03:11:14;;;;;;;;;;;;;;;;;;4958273;28;19918;-94
2023/08/18 03:13:41;;;;;;;;;;;;;;;;;;4953598;28;19954;-94
2023/08/18 03:16:07;;;;;;;;;;;;;;;;;;4936312;29;19935;-94
2023/08/18 03:18:33;;;;;;;;;;;;;;;;;;4934555;28;21065;-92
2023/08/18 03:20:59;;;;;;;;;;;;;;;;;;4936458;28;20365;-94
2023/08/18 03:23:25;;;;;;;;;;;;;;;;;;4950390;28;19914;-94
2023/08/18 03:25:51;;;;;;;;;;;;;;;;;;4949124;28;20323;-93
2023/08/18 03:28:17;;;;;;;;;;;;;;;;;;4933162;29;19914;-94
2023/08/18 03:30:43;;;;;;;;;;;;;;;;;;4934528;29;19918;-94
2023/08/18 03:33:09;;;;;;;;;;;;;;;;;;4942432;28;20862;-92
2023/08/18 03:35:44;;;;;;;;;;;;;;;;;;4938690;28;19911;-93
2023/08/18 03:38:10;;;;;;;;;;;;;;;;;;4939438;28;19973;-93
2023/08/18 03:40:37;;;;;;;;;;;;;;;;;;4960007;28;19953;-93
2023/08/18 03:43:03;;;;;;;;;;;;;;;;;;4945045;29;19957;-92
2023/08/18 03:45:29;;;;;;;;;;;;;;;;;;4940921;28;19914;-94
2023/08/18 03:47:57;;;;;;;;;;;;;;;;;;4941178;28;20272;-92
2023/08/18 03:50:24;;;;;;;;;;;;;;;;;;4933227;28;19996;-92
2023/08/18 03:53:11;;;;;;;;;;;;;;;;;;4942601;29;19922;-94
2023/08/18 03:55:36;;;;;;;;;;;;;;;;;;4956337;28;19914;-93
2023/08/18 03:58:05;;;;;;;;;;;;;;;;;;4937276;28;19918;-94
2023/08/18 04:00:31;;;;;;;;;;;;;;;;;;4952457;28;20437;-93
2023/08/18 04:02:57;;;;;;;;;;;;;;;;;;4940051;28;19934;-92
2023/08/18 04:05:32;;;;;;;;;;;;;;;;;;4933531;28;20151;-93
2023/08/18 04:08:04;;;;;;;;;;;;;;;;;;4951706;28;19911;-94
2023/08/18 04:10:30;;;;;;;;;;;;;;;;;;4937872;28;19967;-94
2023/08/18 04:12:57;;;;;;;;;;;;;;;;;;4944704;28;19926;-95
2023/08/18 04:15:23;;;;;;;;;;;;;;;;;;4935742;28;19946;-94
2023/08/18 04:17:59;;;;;;;;;;;;;;;;;;4953861;28;19922;-94
2023/08/18 04:20:25;;;;;;;;;;;;;;;;;;4933399;28;19967;-94
2023/08/18 04:22:52;;;;;;;;;;;;;;;;;;4948382;28;19914;-93
2023/08/18 04:25:21;;;;;;;;;;;;;;;;;;4951828;28;19910;-94
2023/08/18 04:28:00;;;;;;;;;;;;;;;;;;;;;
2023/08/18 04:30:27;;;;;;;;;;;;;;;;;;4954284;28;19918;-93
2023/08/18 04:33:11;;;;;;;;;;;;;;;;;;4936879;29;20338;-92
2023/08/18 04:35:37;;;;;;;;;;;;;;;;;;4935815;29;19986;-93
2023/08/18 04:38:05;;;;;;;;;;;;;;;;;;4950460;28;19944;-92
2023/08/18 04:40:31;;;;;;;;;;;;;;;;;;4951625;28;19914;-93
2023/08/18 04:42:57;;;;;;;;;;;;;;;;;;4935931;28;20437;-93
2023/08/18 04:45:29;;;;;;;;;;;;;;;;;;4935945;28;19914;-93
2023/08/18 04:47:55;;;;;;;;;;;;;;;;;;4933103;28;20329;-93
2023/08/18 04:50:20;;;;;;;;;;;;;;;;;;4933627;28;19917;-94
2023/08/18 04:52:46;;;;;;;;;;;;;;;;;;4936354;29;19954;-93
2023/08/18 04:55:12;;;;;;;;;;;;;;;;;;4951727;28;19921;-94
2023/08/18 04:57:48;;;;;;;;;;;;;;;;;;4939097;29;19914;-94
2023/08/18 05:00:14;;;;;;;;;;;;;;;;;;4932368;28;19933;-94
2023/08/18 05:02:47;;;;;;;;;;;;;;;;;;4939993;28;19911;-94
2023/08/18 05:05:13;;;;;;;;;;;;;;;;;;4936721;28;19924;-93
2023/08/18 05:07:39;;;;;;;;;;;;;;;;;;4953299;28;19997;-93
2023/08/18 05:10:08;;;;;;;;;;;;;;;;;;4954642;28;19929;-94
2023/08/18 05:12:34;;;;;;;;;;;;;;;;;;4962832;28;19929;-94
2023/08/18 05:15:00;;;;;;;;;;;;;;;;;;4970985;28;20250;-93
2023/08/18 05:17:27;;;;;;;;;;;;;;;;;;4953230;28;19914;-94
2023/08/18 05:19:53;;;;;;;;;;;;;;;;;;4966504;28;19970;-93
2023/08/18 05:22:21;;;;;;;;;;;;;;;;;;4951383;28;19923;-93
2023/08/18 05:24:48;;;;;;;;;;;;;;;;;;4953867;28;19978;-94
2023/08/18 05:27:14;;;;;;;;;;;;;;;;;;4958636;28;19989;-93
2023/08/18 05:29:40;;;;;;;;;;;;;;;;;;4968777;28;19953;-94
2023/08/18 05:32:16;;;;;;;;;;;;;;;;;;4955150;28;19960;-92
2023/08/18 05:34:42;;;;;;;;;;;;;;;;;;4972512;28;20281;-93
2023/08/18 05:37:08;;;;;;;;;;;;;;;;;;4953310;28;20362;-93
2023/08/18 05:39:34;;;;;;;;;;;;;;;;;;4973576;28;19984;-93
2023/08/18 05:41:59;;;;;;;;;;;;;;;;;;4970193;28;19914;-93
2023/08/18 05:44:25;;;;;;;;;;;;;;;;;;4971635;28;20382;-92
2023/08/18 05:46:52;;;;;;;;;;;;;;;;;;4957455;28;19946;-93
2023/08/18 05:49:19;;;;;;;;;;;;;;;;;;4978266;28;19957;-93
2023/08/18 05:51:54;;;;;;;;;;;;;;;;;;4954463;28;19938;-93
2023/08/18 05:54:20;;;;;;;;;;;;;;;;;;4957527;28;20583;-93
2023/08/18 05:56:46;;;;;;;;;;;;;;;;;;4961072;28;19938;-93
2023/08/18 05:59:12;;;;;;;;;;;;;;;;;;4973317;28;19914;-94
2023/08/18 06:01:38;;;;;;;;;;;;;;;;;;4956558;28;20543;-92
2023/08/18 06:04:04;;;;;;;;;;;;;;;;;;4954110;28;19921;-92
2023/08/18 06:06:30;;;;;;;;;;;;;;;;;;4962171;28;19968;-92
2023/08/18 06:08:56;;;;;;;;;;;;;;;;;;4972931;28;20009;-93
2023/08/18 06:11:23;;;;;;;;;;;;;;;;;;4975963;28;19910;-93
2023/08/18 06:13:49;;;;;;;;;;;;;;;;;;4957834;28;19919;-93
2023/08/18 06:16:14;;;;;;;;;;;;;;;;;;4962023;28;19937;-93
2023/08/18 06:18:40;;;;;;;;;;;;;;;;;;4972660;28;20497;-93
2023/08/18 06:21:08;;;;;;;;;;;;;;;;;;4959870;28;20036;-93
2023/08/18 06:23:34;;;;;;;;;;;;;;;;;;4955417;28;20003;-93
2023/08/18 06:26:09;;;;;;;;;;;;;;;;;;4956580;28;19993;-91
2023/08/18 06:28:35;;;;;;;;;;;;;;;;;;4951689;28;20024;-93
2023/08/18 06:31:01;;;;;;;;;;;;;;;;;;4975521;28;20013;-90
2023/08/18 06:33:34;;;;;;;;;;;;;;;;;;4954329;28;19918;-90
2023/08/18 06:36:00;;;;;;;;;;;;;;;;;;4973498;28;19914;-90
2023/08/18 06:38:26;;;;;;;;;;;;;;;;;;4962562;28;19925;-90
2023/08/18 06:40:51;;;;;;;;;;;;;;;;;;4940387;28;19922;-90
2023/08/18 06:43:17;;;;;;;;;;;;;;;;;;4944268;28;20580;-90
2023/08/18 06:45:43;;;;;;;;;;;;;;;;;;4946324;28;19910;-91
2023/08/18 06:48:09;;;;;;;;;;;;;;;;;;4942602;28;19964;-90
2023/08/18 06:50:35;;;;;;;;;;;;;;;;;;4961091;28;19945;-90
2023/08/18 06:53:01;;;;;;;;;;;;;;;;;;4959343;28;19918;-90
2023/08/18 06:55:27;;;;;;;;;;;;;;;;;;4960081;28;19910;-90
2023/08/18 06:57:53;;;;;;;;;;;;;;;;;;4959702;28;19969;-90
2023/08/18 07:00:20;;;;;;;;;;;;;;;;;;4955358;28;19914;-90
2023/08/18 07:02:46;;;;;;;;;;;;;;;;;;4951045;28;19963;-90
2023/08/18 07:05:12;;;;;;;;;;;;;;;;;;4976249;28;19909;-88
2023/08/18 07:07:38;;;;;;;;;;;;;;;;;;4953290;28;19914;-88
2023/08/18 07:10:04;;;;;;;;;;;;;;;;;;4969211;28;20276;-89
2023/08/18 07:12:37;;;;;;;;;;;;;;;;;;4960949;28;19922;-88
2023/08/18 07:15:03;;;;;;;;;;;;;;;;;;4950695;28;20048;-88
2023/08/18 07:17:29;;;;;;;;;;;;;;;;;;4952818;28;19910;-88
2023/08/18 07:19:55;;;;;;;;;;;;;;;;;;4954799;28;19914;-88
2023/08/18 07:22:21;;;;;;;;;;;;;;;;;;4971277;28;19925;-88
2023/08/18 07:24:48;;;;;;;;;;;;;;;;;;4953468;28;19924;-89
2023/08/18 07:27:14;;;;;;;;;;;;;;;;;;4954807;28;20377;-88
2023/08/18 07:29:40;;;;;;;;;;;;;;;;;;4950812;28;19914;-89
2023/08/18 07:32:09;;;;;;;;;;;;;;;;;;4955105;28;20414;-88
2023/08/18 07:34:36;;;;;;;;;;;;;;;;;;4953806;28;19914;-88
2023/08/18 07:37:03;;;;;;;;;;;;;;;;;;4951981;28;19910;-89
2023/08/18 07:39:37;;;;;;;;;;;;;;;;;;4953253;28;19933;-88
2023/08/18 07:42:03;;;;;;;;;;;;;;;;;;4952592;28;19934;-88
2023/08/18 07:44:32;;;;;;;;;;;;;;;;;;4968601;28;19910;-88
2023/08/18 07:46:58;;;;;;;;;;;;;;;;;;4972563;28;19945;-88
2023/08/18 07:49:24;;;;;;;;;;;;;;;;;;4954712;28;19918;-87
2023/08/18 07:51:50;;;;;;;;;;;;;;;;;;4954689;28;20018;-88
2023/08/18 07:54:16;;;;;;;;;;;;;;;;;;4958729;28;19990;-88
2023/08/18 07:56:42;;;;;;;;;;;;;;;;;;4970337;28;20322;-88
2023/08/18 07:59:08;;;;;;;;;;;;;;;;;;4972508;28;19981;-87
2023/08/18 08:01:34;;;;;;;;;;;;;;;;;;4956192;28;19914;-87
2023/08/18 08:04:00;;;;;;;;;;;;;;;;;;4954867;28;19909;-88
2023/08/18 08:06:29;;;;;;;;;;;;;;;;;;4957309;28;19957;-89
2023/08/18 08:09:07;;;;;;;;;;;;;;;;;;4971782;28;20499;-87
2023/08/18 08:11:33;;;;;;;;;;;;;;;;;;4969573;28;20370;-88
2023/08/18 08:14:02;;;;;;;;;;;;;;;;;;4974635;28;19918;-87
2023/08/18 08:16:28;;;;;;;;;;;;;;;;;;4971993;28;20378;-88
2023/08/18 08:18:54;;;;;;;;;;;;;;;;;;4950621;28;20460;-88
2023/08/18 08:21:20;;;;;;;;;;;;;;;;;;4956934;28;19914;-89
2023/08/18 08:23:47;;;;;;;;;;;;;;;;;;4970399;28;20293;-88
2023/08/18 08:26:13;;;;;;;;;;;;;;;;;;4957801;28;19964;-88
2023/08/18 08:28:49;;;;;;;;;;;;;;;;;;4970626;28;19969;-90
2023/08/18 08:31:31;;;;;;;;;;;;;;;;;;;;;
2023/08/18 08:33:57;;;;;;;;;;;;;;;;;;4972258;28;19925;-88
2023/08/18 08:36:23;;;;;;;;;;;;;;;;;;4967871;28;19914;-89
2023/08/18 08:38:49;;;;;;;;;;;;;;;;;;4969657;28;20286;-87
2023/08/18 08:41:21;;;;;;;;;;;;;;;;;;4956917;28;19960;-89
2023/08/18 08:43:47;;;;;;;;;;;;;;;;;;4972778;28;20009;-88
2023/08/18 08:46:13;;;;;;;;;;;;;;;;;;4959934;28;20521;-87
2023/08/18 08:48:39;;;;;;;;;;;;;;;;;;4957620;28;19918;-87
2023/08/18 08:51:05;;;;;;;;;;;;;;;;;;4977233;28;20398;-88
2023/08/18 08:53:31;;;;;;;;;;;;;;;;;;4951717;28;19918;-88
2023/08/18 08:55:57;;;;;;;;;;;;;;;;;;4971501;28;19914;-88
2023/08/18 08:58:29;;;;;;;;;;;;;;;;;;4953602;28;19915;-89
2023/08/18 09:00:55;;;;;;;;;;;;;;;;;;4952369;28;19945;-87
2023/08/18 09:03:21;;;;;;;;;;;;;;;;;;4951947;28;19934;-87
2023/08/18 09:05:47;;;;;;;;;;;;;;;;;;4955103;28;19922;-89
2023/08/18 09:08:13;;;;;;;;;;;;;;;;;;4955019;28;19918;-88
2023/08/18 09:10:40;;;;;;;;;;;;;;;;;;4972534;28;20538;-88
2023/08/18 09:13:07;;;;;;;;;;;;;;;;;;4963562;28;20408;-87
2023/08/18 09:15:32;;;;;;;;;;;;;;;;;;4960436;28;19910;-88
2023/08/18 09:17:58;;;;;;;;;;;;;;;;;;4955663;28;19964;-88
2023/08/18 09:20:24;;;;;;;;;;;;;;;;;;4957943;28;20370;-89
2023/08/18 09:22:50;;;;;;;;;;;;;;;;;;4953946;28;19921;-89
2023/08/18 09:25:16;;;;;;;;;;;;;;;;;;4969402;28;20290;-90
2023/08/18 09:27:43;;;;;;;;;;;;;;;;;;4955765;28;19941;-90
2023/08/18 09:30:09;;;;;;;;;;;;;;;;;;4972881;28;19918;-90
2023/08/18 09:32:35;;;;;;;;;;;;;;;;;;4971412;28;19933;-91
2023/08/18 09:35:01;;;;;;;;;;;;;;;;;;4959199;28;19910;-90
2023/08/18 09:37:27;;;;;;;;;;;;;;;;;;4958623;28;19940;-91
2023/08/18 09:39:53;;;;;;;;;;;;;;;;;;4956530;28;20012;-90
2023/08/18 09:42:19;;;;;;;;;;;;;;;;;;4956267;28;20465;-90
2023/08/18 09:44:45;;;;;;;;;;;;;;;;;;4977358;28;19910;-90
2023/08/18 09:47:11;;;;;;;;;;;;;;;;;;4958022;28;19917;-89
2023/08/18 09:49:37;;;;;;;;;;;;;;;;;;4959217;28;20029;-90
2023/08/18 09:52:04;;;;;;;;;;;;;;;;;;4955609;28;19962;-89
2023/08/18 09:54:30;;;;;;;;;;;;;;;;;;4961186;28;19914;-89
2023/08/18 09:56:56;;;;;;;;;;;;;;;;;;4971242;28;20278;-90
2023/08/18 09:59:22;;;;;;;;;;;;;;;;;;4954786;28;19917;-90
2023/08/18 10:01:48;;;;;;;;;;;;;;;;;;4957201;28;19913;-89
2023/08/18 10:04:14;;;;;;;;;;;;;;;;;;4967965;28;20016;-90
2023/08/18 10:06:40;;;;;;;;;;;;;;;;;;4954156;28;19910;-90
2023/08/18 10:09:06;;;;;;;;;;;;;;;;;;4971873;28;19925;-89
2023/08/18 10:11:32;;;;;;;;;;;;;;;;;;4955777;28;19914;-90
2023/08/18 10:13:58;;;;;;;;;;;;;;;;;;4955293;28;19926;-90
2023/08/18 10:16:24;;;;;;;;;;;;;;;;;;4952596;28;19921;-90
2023/08/18 10:18:50;;;;;;;;;;;;;;;;;;4956117;28;20432;-90
2023/08/18 10:21:16;;;;;;;;;;;;;;;;;;4956442;28;19914;-89
2023/08/18 10:23:43;;;;;;;;;;;;;;;;;;4971916;28;19921;-91
2023/08/18 10:26:09;;;;;;;;;;;;;;;;;;4973318;28;20362;-90
2023/08/18 10:28:37;;;;;;;;;;;;;;;;;;4959901;28;19926;-90
2023/08/18 10:31:03;;;;;;;;;;;;;;;;;;4960315;28;19969;-91
2023/08/18 10:33:32;;;;;;;;;;;;;;;;;;4965855;28;19910;-91
2023/08/18 10:36:06;;;;;;;;;;;;;;;;;;4976240;28;19914;-88
2023/08/18 10:38:32;;;;;;;;;;;;;;;;;;4957898;28;19945;-88
2023/08/18 10:40:58;;;;;;;;;;;;;;;;;;4957515;28;19910;-87
2023/08/18 10:43:24;;;;;;;;;;;;;;;;;;4966629;28;19921;-88
2023/08/18 10:45:53;;;;;;;;;;;;;;;;;;4978658;28;19910;-88
2023/08/18 10:48:19;;;;;;;;;;;;;;;;;;4957109;28;19919;-89
2023/08/18 10:50:45;;;;;;;;;;;;;;;;;;4954990;28;19936;-88
2023/08/18 10:53:12;;;;;;;;;;;;;;;;;;4956346;28;19973;-88
2023/08/18 10:55:39;;;;;;;;;;;;;;;;;;4951462;28;20360;-90
2023/08/18 10:58:04;;;;;;;;;;;;;;;;;;4952487;28;19929;-89
2023/08/18 11:00:34;;;;;;;;;;;;;;;;;;4956057;28;19992;-89
2023/08/18 11:03:00;;;;;;;;;;;;;;;;;;4959890;28;19921;-89
2023/08/18 11:05:26;;;;;;;;;;;;;;;;;;4952334;28;19923;-90
2023/08/18 11:07:52;;;;;;;;;;;;;;;;;;4954304;28;19914;-89
2023/08/18 11:10:18;;;;;;;;;;;;;;;;;;4951286;28;19928;-88
2023/08/18 11:12:44;;;;;;;;;;;;;;;;;;4970202;28;19916;-90
2023/08/18 11:15:10;;;;;;;;;;;;;;;;;;4967452;28;20572;-89
2023/08/18 11:17:36;;;;;;;;;;;;;;;;;;4953671;28;19968;-89
2023/08/18 11:20:04;;;;;;;;;;;;;;;;;;4972681;28;19914;-89
2023/08/18 11:22:30;;;;;;;;;;;;;;;;;;4948463;28;19948;-89
2023/08/18 11:24:56;;;;;;;;;;;;;;;;;;4943684;28;20256;-90
2023/08/18 11:27:22;;;;;;;;;;;;;;;;;;4947421;28;19914;-89
2023/08/18 11:29:48;;;;;;;;;;;;;;;;;;4971554;28;19957;-89
2023/08/18 11:32:14;;;;;;;;;;;;;;;;;;4955374;28;19986;-89
2023/08/18 11:34:41;;;;;;;;;;;;;;;;;;4970468;28;19940;-89
2023/08/18 11:37:10;;;;;;;;;;;;;;;;;;4957000;28;20243;-89
2023/08/18 11:39:36;;;;;;;;;;;;;;;;;;4956766;28;19921;-89
2023/08/18 11:42:03;;;;;;;;;;;;;;;;;;4951143;28;19921;-89
2023/08/18 11:44:29;;;;;;;;;;;;;;;;;;4958459;28;19906;-90
2023/08/18 11:46:55;;;;;;;;;;;;;;;;;;4960351;28;20076;-90
2023/08/18 11:49:21;;;;;;;;;;;;;;;;;;4959849;28;19924;-90
2023/08/18 11:51:47;;;;;;;;;;;;;;;;;;4942068;28;19925;-89
2023/08/18 11:54:13;;;;;;;;;;;;;;;;;;4938833;28;19925;-89
2023/08/18 11:56:39;;;;;;;;;;;;;;;;;;4959980;28;19915;-89
2023/08/18 11:59:05;;;;;;;;;;;;;;;;;;4943093;28;19964;-89
2023/08/18 12:01:31;;;;;;;;;;;;;;;;;;4959375;28;19985;-89
2023/08/18 12:03:57;;;;;;;;;;;;;;;;;;4943440;28;20012;-89
2023/08/18 12:06:24;;;;;;;;;;;;;;;;;;4945535;28;19944;-90
2023/08/18 12:08:50;;;;;;;;;;;;;;;;;;4942050;28;19918;-89
2023/08/18 12:11:16;;;;;;;;;;;;;;;;;;4960445;28;19918;-89
2023/08/18 12:13:42;;;;;;;;;;;;;;;;;;4940778;28;20709;-89
2023/08/18 12:16:08;;;;;;;;;;;;;;;;;;4925508;28;19910;-89
2023/08/18 12:18:34;;;;;;;;;;;;;;;;;;4939878;28;19922;-89
2023/08/18 12:21:00;;;;;;;;;;;;;;;;;;4920978;28;20183;-89
2023/08/18 12:23:26;;;;;;;;;;;;;;;;;;4923320;28;20411;-89
2023/08/18 12:25:52;;;;;;;;;;;;;;;;;;4936493;28;19942;-90
2023/08/18 12:28:18;;;;;;;;;;;;;;;;;;4939079;28;19918;-89
2023/08/18 12:30:44;;;;;;;;;;;;;;;;;;4940860;28;20025;-89
2023/08/18 12:33:10;;;;;;;;;;;;;;;;;;4924575;28;19918;-90
2023/08/18 12:35:36;;;;;;;;;;;;;;;;;;4922944;28;19914;-90
2023/08/18 12:38:02;;;;;;;;;;;;;;;;;;4941708;28;19965;-90
2023/08/18 12:40:28;;;;;;;;;;;;;;;;;;4921039;28;20353;-90
2023/08/18 12:42:54;;;;;;;;;;;;;;;;;;4938253;28;19933;-91
2023/08/18 12:45:20;;;;;;;;;;;;;;;;;;4936785;28;20406;-90
2023/08/18 12:47:46;;;;;;;;;;;;;;;;;;4938115;28;20256;-90
2023/08/18 12:50:13;;;;;;;;;;;;;;;;;;4922420;28;19922;-90
2023/08/18 12:52:39;;;;;;;;;;;;;;;;;;4921993;28;19941;-89
2023/08/18 12:55:04;;;;;;;;;;;;;;;;;;4924430;29;19922;-89
2023/08/18 12:57:30;;;;;;;;;;;;;;;;;;4929822;28;20294;-88
2023/08/18 12:59:56;;;;;;;;;;;;;;;;;;4948291;28;20017;-89
2023/08/18 13:02:22;;;;;;;;;;;;;;;;;;4943576;28;19914;-89
2023/08/18 13:04:48;;;;;;;;;;;;;;;;;;4932001;29;19910;-88
2023/08/18 13:07:15;;;;;;;;;;;;;;;;;;4928088;28;19925;-89
2023/08/18 13:09:41;;;;;;;;;;;;;;;;;;4931013;29;19925;-88
2023/08/18 13:12:07;;;;;;;;;;;;;;;;;;4926359;28;19940;-89
2023/08/18 13:14:33;;;;;;;;;;;;;;;;;;4955120;28;19926;-90
2023/08/18 13:16:59;;;;;;;;;;;;;;;;;;4962690;28;19933;-89
2023/08/18 13:19:25;;;;;;;;;;;;;;;;;;4966378;28;19969;-89
2023/08/18 13:21:51;;;;;;;;;;;;;;;;;;4948692;28;19918;-92
2023/08/18 13:24:17;;;;;;;;;;;;;;;;;;4967855;28;19918;-90
2023/08/18 13:26:43;;;;;;;;;;;;;;;;;;4949470;28;20679;-90
2023/08/18 13:29:09;;;;;;;;;;;;;;;;;;4949856;28;19922;-90
2023/08/18 13:31:35;;;;;;;;;;;;;;;;;;4949926;28;19941;-91
2023/08/18 13:34:01;;;;;;;;;;;;;;;;;;4950033;28;19917;-89
2023/08/18 13:36:27;;;;;;;;;;;;;;;;;;4943556;28;20620;-90
2023/08/18 13:38:53;;;;;;;;;;;;;;;;;;4937092;28;20290;-90
2023/08/18 13:41:19;;;;;;;;;;;;;;;;;;4940388;28;19914;-90
2023/08/18 13:43:45;;;;;;;;;;;;;;;;;;4960002;28;20520;-91
2023/08/18 13:46:11;;;;;;;;;;;;;;;;;;4940373;28;19914;-90
2023/08/18 13:48:37;;;;;;;;;;;;;;;;;;4941434;28;20487;-89
2023/08/18 13:51:05;;;;;;;;;;;;;;;;;;4961509;28;20479;-89
2023/08/18 13:53:34;;;;;;;;;;;;;;;;;;4948001;28;20290;-90
2023/08/18 13:56:00;;;;;;;;;;;;;;;;;;4947345;28;20428;-89
2023/08/18 13:58:26;;;;;;;;;;;;;;;;;;4968782;28;19910;-88
2023/08/18 14:00:54;;;;;;;;;;;;;;;;;;4951506;28;19921;-90
2023/08/18 14:03:20;;;;;;;;;;;;;;;;;;4966036;28;19918;-90
2023/08/18 14:05:46;;;;;;;;;;;;;;;;;;4968207;28;19909;-91
2023/08/18 14:08:12;;;;;;;;;;;;;;;;;;4950726;28;19917;-90
2023/08/18 14:10:38;;;;;;;;;;;;;;;;;;4950714;28;19965;-90
2023/08/18 14:13:04;;;;;;;;;;;;;;;;;;4950359;28;20374;-90
2023/08/18 14:15:30;;;;;;;;;;;;;;;;;;4951905;28;20298;-91
2023/08/18 14:17:56;;;;;;;;;;;;;;;;;;4951430;28;19965;-90
2023/08/18 14:20:22;;;;;;;;;;;;;;;;;;4968344;28;19972;-91
2023/08/18 14:22:49;;;;;;;;;;;;;;;;;;4941411;28;19910;-91
2023/08/18 14:25:19;;;;;;;;;;;;;;;;;;4954105;28;21153;-90
2023/08/18 14:27:45;;;;;;;;;;;;;;;;;;4955626;28;21170;-91
2023/08/18 14:30:11;;;;;;;;;;;;;;;;;;4955096;28;19925;-90
2023/08/18 14:32:37;;;;;;;;;;;;;;;;;;4944327;28;19914;-91
2023/08/18 14:35:04;;;;;;;;;;;;;;;;;;4941893;28;19918;-91
2023/08/18 14:37:30;;;;;;;;;;;;;;;;;;4945381;28;19996;-91
2023/08/18 14:39:56;;;;;;;;;;;;;;;;;;4961585;28;20656;-91
2023/08/18 14:42:26;;;;;;;;;;;;;;;;;;4965015;28;19914;-90
2023/08/18 14:44:52;;;;;;;;;;;;;;;;;;4946844;28;20409;-89
2023/08/18 14:47:18;;;;;;;;;;;;;;;;;;4950154;28;20377;-90
2023/08/18 14:49:44;;;;;;;;;;;;;;;;;;4947471;28;19929;-91
2023/08/18 14:52:10;;;;;;;;;;;;;;;;;;4954825;28;19910;-91
2023/08/18 14:54:36;;;;;;;;;;;;;;;;;;4951033;28;19918;-90
2023/08/18 14:57:11;;;;;;;;;;;;;;;;;;4967513;28;20453;-90
2023/08/18 14:59:37;;;;;;;;;;;;;;;;;;4953003;28;19919;-91
2023/08/18 15:02:03;;;;;;;;;;;;;;;;;;4977025;28;19918;-90
2023/08/18 15:04:29;;;;;;;;;;;;;;;;;;4963814;28;19925;-89
2023/08/18 15:06:55;;;;;;;;;;;;;;;;;;4975703;28;20233;-88
2023/08/18 15:09:21;;;;;;;;;;;;;;;;;;4985674;28;19933;-90
2023/08/18 15:11:47;;;;;;;;;;;;;;;;;;4972649;28;20001;-90
2023/08/18 15:14:13;;;;;;;;;;;;;;;;;;4970121;28;19977;-90
2023/08/18 15:16:39;;;;;;;;;;;;;;;;;;4964297;28;19929;-90
2023/08/18 15:19:05;;;;;;;;;;;;;;;;;;4962712;28;19938;-89
2023/08/18 15:21:31;;;;;;;;;;;;;;;;;;4977081;28;19913;-90
2023/08/18 15:23:57;;;;;;;;;;;;;;;;;;4956413;28;19990;-91
2023/08/18 15:26:23;;;;;;;;;;;;;;;;;;4961318;28;19909;-90
2023/08/18 15:28:49;;;;;;;;;;;;;;;;;;4955891;28;19910;-91
2023/08/18 15:31:20;;;;;;;;;;;;;;;;;;4977863;28;19918;-91
2023/08/18 15:33:46;;;;;;;;;;;;;;;;;;4976417;28;19921;-91
2023/08/18 15:36:13;;;;;;;;;;;;;;;;;;4962904;28;19914;-92
2023/08/18 15:38:38;;;;;;;;;;;;;;;;;;4981013;28;19914;-91
2023/08/18 15:41:04;;;;;;;;;;;;;;;;;;4966888;28;19993;-91
2023/08/18 15:43:31;;;;;;;;;;;;;;;;;;4981259;28;19910;-92
2023/08/18 15:45:57;;;;;;;;;;;;;;;;;;4979636;28;19954;-92
2023/08/18 15:48:23;;;;;;;;;;;;;;;;;;4981558;28;19918;-91
2023/08/18 15:50:49;;;;;;;;;;;;;;;;;;4981717;28;20523;-91
2023/08/18 15:53:23;;;;;;;;;;;;;;;;;;4959198;28;19910;-91
2023/08/18 15:55:49;;;;;;;;;;;;;;;;;;4963721;28;19917;-90
2023/08/18 15:58:18;;;;;;;;;;;;;;;;;;4977896;28;19910;-90
2023/08/18 16:00:44;;;;;;;;;;;;;;;;;;4978096;28;20016;-91
2023/08/18 16:03:10;;;;;;;;;;;;;;;;;;4979415;28;19945;-90
2023/08/18 16:05:36;;;;;;;;;;;;;;;;;;4965330;28;19977;-91
2023/08/18 16:08:02;;;;;;;;;;;;;;;;;;4960708;28;19994;-90
2023/08/18 16:10:28;;;;;;;;;;;;;;;;;;4965373;28;20324;-91
2023/08/18 16:12:54;;;;;;;;;;;;;;;;;;4962821;28;20214;-90
2023/08/18 16:15:20;;;;;;;;;;;;;;;;;;4968675;28;20321;-90
2023/08/18 16:17:46;;;;;;;;;;;;;;;;;;4946466;29;20164;-89
2023/08/18 16:20:11;;;;;;;;;;;;;;;;;;4960490;28;19914;-89
2023/08/18 16:22:37;;;;;;;;;;;;;;;;;;4942734;28;19914;-90
2023/08/18 16:25:04;;;;;;;;;;;;;;;;;;4944407;28;19926;-89
2023/08/18 16:27:29;;;;;;;;;;;;;;;;;;4957041;28;19969;-89
2023/08/18 16:29:55;;;;;;;;;;;;;;;;;;4958445;28;19926;-88
2023/08/18 16:32:21;;;;;;;;;;;;;;;;;;4960468;28;19910;-91
2023/08/18 16:34:47;;;;;;;;;;;;;;;;;;4944579;28;19941;-90
2023/08/18 16:37:20;;;;;;;;;;;;;;;;;;4961399;28;19911;-88
2023/08/18 16:39:46;;;;;;;;;;;;;;;;;;4944464;28;19911;-89
2023/08/18 16:42:12;;;;;;;;;;;;;;;;;;4944032;28;19921;-91